sensor_id;sensor_type;location;lat;lon;timestamp;P1;durP1;ratioP1;P2;durP2;ratioP2
6185;SDS011;3126;52.738;8.316;2023-06-22T00:01:20;16.60;;;13.35;;
6185;SDS011;3126;52.738;8.316;2023-06-22T00:06:22;16.42;;;14.27;;
6185;SDS011;3126;52.738;8.316;2023-06-22T00:11:22;15.35;;;13.77;;
6185;SDS011;3126;52.738;8.316;2023-06-22T00:16:23;17.23;;;14.07;;
6185;SDS011;3126;52.738;8.316;2023-06-22T00:21:23;17.42;;;13.10;;
6185;SDS011;3126;52.738;8.316;2023-06-22T00:26:24;16.25;;;13.98;;
6185;SDS011;3126;52.738;8.316;2023-06-22T00:31:24;15.38;;;13.73;;
6185;SDS011;3126;52.738;8.316;2023-06-22T00:36:25;19.95;;;14.48;;
6185;SDS011;3126;52.738;8.316;2023-06-22T00:41:25;20.80;;;15.15;;
6185;SDS011;3126;52.738;8.316;2023-06-22T00:46:28;16.02;;;14.38;;
6185;SDS011;3126;52.738;8.316;2023-06-22T00:51:29;16.55;;;14.75;;
6185;SDS011;3126;52.738;8.316;2023-06-22T00:56:31;22.25;;;15.13;;
6185;SDS011;3126;52.738;8.316;2023-06-22T01:01:32;18.33;;;14.63;;
6185;SDS011;3126;52.738;8.316;2023-06-22T01:06:35;17.08;;;14.27;;
6185;SDS011;3126;52.738;8.316;2023-06-22T01:11:41;19.15;;;14.98;;
6185;SDS011;3126;52.738;8.316;2023-06-22T01:16:53;19.85;;;15.57;;
6185;SDS011;3126;52.738;8.316;2023-06-22T01:21:55;17.52;;;15.05;;
6185;SDS011;3126;52.738;8.316;2023-06-22T01:37:31;19.27;;;15.35;;
6185;SDS011;3126;52.738;8.316;2023-06-22T01:42:34;20.05;;;16.17;;
6185;SDS011;3126;52.738;8.316;2023-06-22T01:47:36;23.80;;;16.65;;
6185;SDS011;3126;52.738;8.316;2023-06-22T01:52:37;20.95;;;15.55;;
6185;SDS011;3126;52.738;8.316;2023-06-22T01:57:38;21.95;;;16.45;;
6185;SDS011;3126;52.738;8.316;2023-06-22T02:02:52;19.38;;;16.20;;
6185;SDS011;3126;52.738;8.316;2023-06-22T02:07:56;21.27;;;16.92;;
6185;SDS011;3126;52.738;8.316;2023-06-22T02:13:01;21.80;;;16.90;;
6185;SDS011;3126;52.738;8.316;2023-06-22T02:18:03;22.02;;;18.38;;
6185;SDS011;3126;52.738;8.316;2023-06-22T02:23:05;20.48;;;17.77;;
6185;SDS011;3126;52.738;8.316;2023-06-22T02:28:07;22.42;;;17.35;;
6185;SDS011;3126;52.738;8.316;2023-06-22T02:33:07;20.92;;;18.20;;
6185;SDS011;3126;52.738;8.316;2023-06-22T02:38:08;23.50;;;17.83;;
6185;SDS011;3126;52.738;8.316;2023-06-22T02:43:10;21.65;;;17.48;;
6185;SDS011;3126;52.738;8.316;2023-06-22T02:48:11;22.23;;;18.65;;
6185;SDS011;3126;52.738;8.316;2023-06-22T02:53:12;22.48;;;17.90;;
6185;SDS011;3126;52.738;8.316;2023-06-22T02:58:13;21.17;;;17.20;;
6185;SDS011;3126;52.738;8.316;2023-06-22T03:03:14;20.23;;;16.88;;
6185;SDS011;3126;52.738;8.316;2023-06-22T03:08:14;19.10;;;15.82;;
6185;SDS011;3126;52.738;8.316;2023-06-22T03:13:15;18.60;;;15.68;;
6185;SDS011;3126;52.738;8.316;2023-06-22T03:18:16;22.45;;;16.92;;
6185;SDS011;3126;52.738;8.316;2023-06-22T03:23:17;22.83;;;16.42;;
6185;SDS011;3126;52.738;8.316;2023-06-22T03:28:18;19.98;;;14.27;;
6185;SDS011;3126;52.738;8.316;2023-06-22T03:33:19;17.65;;;15.52;;
6185;SDS011;3126;52.738;8.316;2023-06-22T03:38:20;16.33;;;13.68;;
6185;SDS011;3126;52.738;8.316;2023-06-22T03:43:22;17.52;;;14.45;;
6185;SDS011;3126;52.738;8.316;2023-06-22T03:48:23;17.30;;;13.63;;
6185;SDS011;3126;52.738;8.316;2023-06-22T03:53:24;17.38;;;13.75;;
6185;SDS011;3126;52.738;8.316;2023-06-22T03:58:25;14.85;;;12.20;;
6185;SDS011;3126;52.738;8.316;2023-06-22T04:03:26;16.52;;;12.48;;
6185;SDS011;3126;52.738;8.316;2023-06-22T04:08:27;14.60;;;11.80;;
6185;SDS011;3126;52.738;8.316;2023-06-22T04:13:28;14.32;;;11.57;;
6185;SDS011;3126;52.738;8.316;2023-06-22T04:18:29;13.00;;;11.02;;
6185;SDS011;3126;52.738;8.316;2023-06-22T04:23:30;15.05;;;11.68;;
6185;SDS011;3126;52.738;8.316;2023-06-22T04:28:31;12.93;;;10.65;;
6185;SDS011;3126;52.738;8.316;2023-06-22T04:33:35;16.55;;;10.95;;
6185;SDS011;3126;52.738;8.316;2023-06-22T04:38:36;15.93;;;11.27;;
6185;SDS011;3126;52.738;8.316;2023-06-22T04:43:37;15.93;;;10.98;;
6185;SDS011;3126;52.738;8.316;2023-06-22T04:48:38;17.05;;;11.57;;
6185;SDS011;3126;52.738;8.316;2023-06-22T04:53:39;16.42;;;11.05;;
6185;SDS011;3126;52.738;8.316;2023-06-22T04:58:41;17.48;;;12.65;;
6185;SDS011;3126;52.738;8.316;2023-06-22T05:03:42;11.32;;;10.10;;
6185;SDS011;3126;52.738;8.316;2023-06-22T05:08:43;17.27;;;11.98;;
6185;SDS011;3126;52.738;8.316;2023-06-22T05:13:44;15.50;;;10.77;;
6185;SDS011;3126;52.738;8.316;2023-06-22T05:18:45;13.52;;;11.00;;
6185;SDS011;3126;52.738;8.316;2023-06-22T05:23:46;12.77;;;11.15;;
6185;SDS011;3126;52.738;8.316;2023-06-22T05:28:47;16.40;;;11.50;;
6185;SDS011;3126;52.738;8.316;2023-06-22T05:33:49;13.88;;;11.45;;
6185;SDS011;3126;52.738;8.316;2023-06-22T05:38:50;12.20;;;10.30;;
6185;SDS011;3126;52.738;8.316;2023-06-22T05:43:51;13.63;;;10.60;;
6185;SDS011;3126;52.738;8.316;2023-06-22T05:48:52;11.85;;;9.27;;
6185;SDS011;3126;52.738;8.316;2023-06-22T05:53:53;11.80;;;9.55;;
6185;SDS011;3126;52.738;8.316;2023-06-22T05:58:53;11.55;;;9.20;;
6185;SDS011;3126;52.738;8.316;2023-06-22T06:03:54;12.60;;;9.35;;
6185;SDS011;3126;52.738;8.316;2023-06-22T06:08:54;13.32;;;9.82;;
6185;SDS011;3126;52.738;8.316;2023-06-22T06:13:55;11.20;;;9.20;;
6185;SDS011;3126;52.738;8.316;2023-06-22T06:18:56;12.68;;;10.10;;
6185;SDS011;3126;52.738;8.316;2023-06-22T06:23:58;10.80;;;8.63;;
6185;SDS011;3126;52.738;8.316;2023-06-22T06:28:59;10.40;;;8.43;;
6185;SDS011;3126;52.738;8.316;2023-06-22T06:34:00;9.38;;;8.38;;
6185;SDS011;3126;52.738;8.316;2023-06-22T06:39:02;12.38;;;8.88;;
6185;SDS011;3126;52.738;8.316;2023-06-22T06:44:03;8.57;;;7.13;;
6185;SDS011;3126;52.738;8.316;2023-06-22T06:49:04;10.48;;;7.93;;
6185;SDS011;3126;52.738;8.316;2023-06-22T06:54:05;8.38;;;7.35;;
6185;SDS011;3126;52.738;8.316;2023-06-22T06:59:05;8.27;;;7.32;;
6185;SDS011;3126;52.738;8.316;2023-06-22T07:04:06;10.60;;;7.25;;
6185;SDS011;3126;52.738;8.316;2023-06-22T07:09:07;7.72;;;6.63;;
6185;SDS011;3126;52.738;8.316;2023-06-22T07:14:08;7.30;;;6.43;;
6185;SDS011;3126;52.738;8.316;2023-06-22T07:19:11;9.10;;;7.45;;
6185;SDS011;3126;52.738;8.316;2023-06-22T07:24:12;10.50;;;7.22;;
6185;SDS011;3126;52.738;8.316;2023-06-22T07:29:13;9.60;;;6.65;;
6185;SDS011;3126;52.738;8.316;2023-06-22T07:34:15;8.02;;;6.60;;
6185;SDS011;3126;52.738;8.316;2023-06-22T07:39:16;8.02;;;6.40;;
6185;SDS011;3126;52.738;8.316;2023-06-22T07:44:17;9.05;;;6.82;;
6185;SDS011;3126;52.738;8.316;2023-06-22T07:49:18;6.00;;;5.18;;
6185;SDS011;3126;52.738;8.316;2023-06-22T07:54:19;6.90;;;6.05;;
6185;SDS011;3126;52.738;8.316;2023-06-22T07:59:20;8.88;;;6.07;;
6185;SDS011;3126;52.738;8.316;2023-06-22T08:04:21;9.38;;;5.85;;
6185;SDS011;3126;52.738;8.316;2023-06-22T08:09:22;6.18;;;4.85;;
6185;SDS011;3126;52.738;8.316;2023-06-22T08:14:23;5.85;;;5.20;;
6185;SDS011;3126;52.738;8.316;2023-06-22T08:19:24;7.35;;;5.32;;
6185;SDS011;3126;52.738;8.316;2023-06-22T08:24:25;10.68;;;5.93;;
6185;SDS011;3126;52.738;8.316;2023-06-22T08:29:30;7.43;;;5.65;;
6185;SDS011;3126;52.738;8.316;2023-06-22T08:34:31;9.10;;;6.18;;
6185;SDS011;3126;52.738;8.316;2023-06-22T08:39:32;8.32;;;5.60;;
6185;SDS011;3126;52.738;8.316;2023-06-22T08:44:33;6.50;;;5.90;;
6185;SDS011;3126;52.738;8.316;2023-06-22T08:49:34;12.13;;;6.72;;
6185;SDS011;3126;52.738;8.316;2023-06-22T08:54:35;7.07;;;6.38;;
6185;SDS011;3126;52.738;8.316;2023-06-22T08:59:36;7.07;;;6.38;;
6185;SDS011;3126;52.738;8.316;2023-06-22T09:04:37;7.32;;;6.20;;
6185;SDS011;3126;52.738;8.316;2023-06-22T09:09:38;10.25;;;6.75;;
6185;SDS011;3126;52.738;8.316;2023-06-22T09:14:39;7.35;;;6.38;;
6185;SDS011;3126;52.738;8.316;2023-06-22T09:19:40;9.38;;;7.18;;
6185;SDS011;3126;52.738;8.316;2023-06-22T09:24:41;8.18;;;7.38;;
6185;SDS011;3126;52.738;8.316;2023-06-22T09:29:42;7.18;;;6.47;;
6185;SDS011;3126;52.738;8.316;2023-06-22T09:34:43;7.22;;;6.53;;
6185;SDS011;3126;52.738;8.316;2023-06-22T09:39:44;8.35;;;6.78;;
6185;SDS011;3126;52.738;8.316;2023-06-22T09:44:45;9.73;;;6.90;;
6185;SDS011;3126;52.738;8.316;2023-06-22T09:49:46;8.27;;;7.47;;
6185;SDS011;3126;52.738;8.316;2023-06-22T09:54:47;10.52;;;7.97;;
6185;SDS011;3126;52.738;8.316;2023-06-22T09:59:48;12.35;;;8.15;;
6185;SDS011;3126;52.738;8.316;2023-06-22T10:04:49;8.25;;;7.45;;
6185;SDS011;3126;52.738;8.316;2023-06-22T10:09:50;10.27;;;6.65;;
6185;SDS011;3126;52.738;8.316;2023-06-22T10:14:51;9.18;;;7.40;;
6185;SDS011;3126;52.738;8.316;2023-06-22T10:19:52;7.55;;;5.70;;
6185;SDS011;3126;52.738;8.316;2023-06-22T10:24:53;9.93;;;7.97;;
6185;SDS011;3126;52.738;8.316;2023-06-22T10:29:54;7.97;;;6.30;;
6185;SDS011;3126;52.738;8.316;2023-06-22T10:34:54;8.15;;;6.43;;
6185;SDS011;3126;52.738;8.316;2023-06-22T10:39:55;7.30;;;6.68;;
6185;SDS011;3126;52.738;8.316;2023-06-22T10:44:56;7.80;;;7.05;;
6185;SDS011;3126;52.738;8.316;2023-06-22T10:49:59;6.72;;;6.07;;
6185;SDS011;3126;52.738;8.316;2023-06-22T10:54:59;6.93;;;6.32;;
6185;SDS011;3126;52.738;8.316;2023-06-22T11:00:00;7.82;;;6.53;;
6185;SDS011;3126;52.738;8.316;2023-06-22T11:05:02;7.30;;;6.60;;
6185;SDS011;3126;52.738;8.316;2023-06-22T11:10:03;9.07;;;6.65;;
6185;SDS011;3126;52.738;8.316;2023-06-22T11:15:04;7.38;;;6.53;;
6185;SDS011;3126;52.738;8.316;2023-06-22T11:20:06;8.07;;;6.30;;
6185;SDS011;3126;52.738;8.316;2023-06-22T11:25:10;8.80;;;6.90;;
6185;SDS011;3126;52.738;8.316;2023-06-22T11:30:12;7.53;;;6.82;;
6185;SDS011;3126;52.738;8.316;2023-06-22T11:35:13;7.93;;;7.13;;
6185;SDS011;3126;52.738;8.316;2023-06-22T11:40:14;7.75;;;6.93;;
6185;SDS011;3126;52.738;8.316;2023-06-22T11:45:15;9.63;;;6.80;;
6185;SDS011;3126;52.738;8.316;2023-06-22T11:50:17;7.47;;;6.78;;
6185;SDS011;3126;52.738;8.316;2023-06-22T11:55:18;6.90;;;6.30;;
6185;SDS011;3126;52.738;8.316;2023-06-22T12:00:19;6.78;;;6.15;;
6185;SDS011;3126;52.738;8.316;2023-06-22T12:05:21;6.85;;;6.25;;
6185;SDS011;3126;52.738;8.316;2023-06-22T12:10:22;8.23;;;6.28;;
6185;SDS011;3126;52.738;8.316;2023-06-22T12:15:24;6.63;;;5.90;;
6185;SDS011;3126;52.738;8.316;2023-06-22T12:20:25;7.53;;;5.75;;
6185;SDS011;3126;52.738;8.316;2023-06-22T12:25:26;6.60;;;6.00;;
6185;SDS011;3126;52.738;8.316;2023-06-22T12:30:27;7.03;;;5.80;;
6185;SDS011;3126;52.738;8.316;2023-06-22T12:35:28;8.55;;;6.03;;
6185;SDS011;3126;52.738;8.316;2023-06-22T12:40:29;6.20;;;5.70;;
6185;SDS011;3126;52.738;8.316;2023-06-22T12:45:30;6.43;;;5.72;;
6185;SDS011;3126;52.738;8.316;2023-06-22T12:50:33;6.35;;;5.75;;
6185;SDS011;3126;52.738;8.316;2023-06-22T12:55:34;6.60;;;5.25;;
6185;SDS011;3126;52.738;8.316;2023-06-22T13:00:35;6.80;;;6.10;;
6185;SDS011;3126;52.738;8.316;2023-06-22T13:05:36;6.65;;;5.93;;
6185;SDS011;3126;52.738;8.316;2023-06-22T13:10:38;6.75;;;5.97;;
6185;SDS011;3126;52.738;8.316;2023-06-22T13:15:39;7.15;;;5.82;;
6185;SDS011;3126;52.738;8.316;2023-06-22T13:20:40;6.05;;;5.47;;
6185;SDS011;3126;52.738;8.316;2023-06-22T13:25:41;8.68;;;5.95;;
6185;SDS011;3126;52.738;8.316;2023-06-22T13:30:42;6.82;;;5.90;;
6185;SDS011;3126;52.738;8.316;2023-06-22T13:35:45;6.97;;;6.28;;
6185;SDS011;3126;52.738;8.316;2023-06-22T13:40:46;6.75;;;6.15;;
6185;SDS011;3126;52.738;8.316;2023-06-22T13:45:47;7.05;;;6.35;;
6185;SDS011;3126;52.738;8.316;2023-06-22T13:50:48;7.18;;;5.57;;
6185;SDS011;3126;52.738;8.316;2023-06-22T13:55:49;6.90;;;6.18;;
6185;SDS011;3126;52.738;8.316;2023-06-22T14:00:50;6.80;;;6.10;;
6185;SDS011;3126;52.738;8.316;2023-06-22T14:05:51;9.45;;;6.82;;
6185;SDS011;3126;52.738;8.316;2023-06-22T14:10:54;8.45;;;7.28;;
6185;SDS011;3126;52.738;8.316;2023-06-22T14:15:54;7.93;;;7.22;;
6185;SDS011;3126;52.738;8.316;2023-06-22T14:20:55;7.47;;;6.43;;
6185;SDS011;3126;52.738;8.316;2023-06-22T14:25:55;8.73;;;7.25;;
6185;SDS011;3126;52.738;8.316;2023-06-22T14:30:57;8.27;;;7.25;;
6185;SDS011;3126;52.738;8.316;2023-06-22T14:35:58;8.02;;;7.22;;
6185;SDS011;3126;52.738;8.316;2023-06-22T14:40:59;7.57;;;6.70;;
6185;SDS011;3126;52.738;8.316;2023-06-22T14:45:59;9.32;;;7.35;;
6185;SDS011;3126;52.738;8.316;2023-06-22T14:51:00;8.68;;;7.88;;
6185;SDS011;3126;52.738;8.316;2023-06-22T14:56:01;9.50;;;8.45;;
6185;SDS011;3126;52.738;8.316;2023-06-22T15:01:02;11.43;;;8.80;;
6185;SDS011;3126;52.738;8.316;2023-06-22T15:06:03;10.25;;;9.25;;
6185;SDS011;3126;52.738;8.316;2023-06-22T15:11:05;10.68;;;9.55;;
6185;SDS011;3126;52.738;8.316;2023-06-22T15:16:05;11.90;;;10.65;;
6185;SDS011;3126;52.738;8.316;2023-06-22T15:21:07;9.93;;;9.02;;
6185;SDS011;3126;52.738;8.316;2023-06-22T15:26:08;10.63;;;9.52;;
6185;SDS011;3126;52.738;8.316;2023-06-22T15:31:09;11.32;;;10.23;;
6185;SDS011;3126;52.738;8.316;2023-06-22T15:36:10;11.77;;;10.50;;
6185;SDS011;3126;52.738;8.316;2023-06-22T15:41:10;11.73;;;10.07;;
6185;SDS011;3126;52.738;8.316;2023-06-22T15:46:11;11.93;;;10.68;;
6185;SDS011;3126;52.738;8.316;2023-06-22T15:51:12;12.13;;;10.68;;
6185;SDS011;3126;52.738;8.316;2023-06-22T15:56:13;11.63;;;10.43;;
6185;SDS011;3126;52.738;8.316;2023-06-22T16:01:15;12.88;;;11.57;;
6185;SDS011;3126;52.738;8.316;2023-06-22T16:06:16;12.77;;;11.48;;
6185;SDS011;3126;52.738;8.316;2023-06-22T16:11:17;12.80;;;11.57;;
6185;SDS011;3126;52.738;8.316;2023-06-22T16:16:17;13.77;;;12.38;;
6185;SDS011;3126;52.738;8.316;2023-06-22T16:21:18;13.25;;;11.75;;
6185;SDS011;3126;52.738;8.316;2023-06-22T16:26:19;14.10;;;11.55;;
6185;SDS011;3126;52.738;8.316;2023-06-22T16:31:20;13.30;;;12.00;;
6185;SDS011;3126;52.738;8.316;2023-06-22T16:36:20;13.00;;;11.13;;
6185;SDS011;3126;52.738;8.316;2023-06-22T16:41:21;12.00;;;10.80;;
6185;SDS011;3126;52.738;8.316;2023-06-22T16:46:22;12.48;;;10.65;;
6185;SDS011;3126;52.738;8.316;2023-06-22T16:51:23;11.25;;;10.15;;
6185;SDS011;3126;52.738;8.316;2023-06-22T16:56:24;11.63;;;10.43;;
6185;SDS011;3126;52.738;8.316;2023-06-22T17:01:26;12.65;;;11.35;;
6185;SDS011;3126;52.738;8.316;2023-06-22T17:06:27;13.05;;;11.65;;
6185;SDS011;3126;52.738;8.316;2023-06-22T17:11:29;11.73;;;10.50;;
6185;SDS011;3126;52.738;8.316;2023-06-22T17:16:30;15.15;;;11.35;;
6185;SDS011;3126;52.738;8.316;2023-06-22T17:21:35;11.50;;;10.30;;
6185;SDS011;3126;52.738;8.316;2023-06-22T17:26:36;12.95;;;11.20;;
6185;SDS011;3126;52.738;8.316;2023-06-22T17:31:37;11.77;;;10.57;;
6185;SDS011;3126;52.738;8.316;2023-06-22T17:36:39;11.20;;;10.10;;
6185;SDS011;3126;52.738;8.316;2023-06-22T17:41:42;12.20;;;10.90;;
6185;SDS011;3126;52.738;8.316;2023-06-22T17:46:43;11.57;;;10.38;;
6185;SDS011;3126;52.738;8.316;2023-06-22T17:51:44;11.20;;;9.77;;
6185;SDS011;3126;52.738;8.316;2023-06-22T17:56:51;12.27;;;10.93;;
6185;SDS011;3126;52.738;8.316;2023-06-22T18:01:51;13.55;;;11.20;;
6185;SDS011;3126;52.738;8.316;2023-06-22T18:06:52;13.50;;;12.10;;
6185;SDS011;3126;52.738;8.316;2023-06-22T18:11:54;14.10;;;11.50;;
6185;SDS011;3126;52.738;8.316;2023-06-22T18:16:59;14.77;;;12.75;;
6185;SDS011;3126;52.738;8.316;2023-06-22T18:22:00;14.30;;;12.80;;
6185;SDS011;3126;52.738;8.316;2023-06-22T18:27:01;16.10;;;13.52;;
6185;SDS011;3126;52.738;8.316;2023-06-22T18:32:02;16.05;;;13.88;;
6185;SDS011;3126;52.738;8.316;2023-06-22T18:37:03;16.42;;;13.63;;
6185;SDS011;3126;52.738;8.316;2023-06-22T18:42:08;15.25;;;13.52;;
6185;SDS011;3126;52.738;8.316;2023-06-22T18:47:10;19.73;;;15.00;;
6185;SDS011;3126;52.738;8.316;2023-06-22T18:57:24;17.35;;;15.45;;
6185;SDS011;3126;52.738;8.316;2023-06-22T19:07:55;19.25;;;16.25;;
6185;SDS011;3126;52.738;8.316;2023-06-22T19:12:53;18.98;;;16.98;;
6185;SDS011;3126;52.738;8.316;2023-06-22T19:17:59;22.23;;;17.77;;
6185;SDS011;3126;52.738;8.316;2023-06-22T19:23:01;22.77;;;18.55;;
6185;SDS011;3126;52.738;8.316;2023-06-22T19:28:02;21.80;;;19.05;;
6185;SDS011;3126;52.738;8.316;2023-06-22T19:33:13;21.55;;;19.23;;
6185;SDS011;3126;52.738;8.316;2023-06-22T19:38:15;21.77;;;18.42;;
6185;SDS011;3126;52.738;8.316;2023-06-22T19:43:19;30.02;;;20.13;;
6185;SDS011;3126;52.738;8.316;2023-06-22T19:48:23;24.83;;;20.55;;
6185;SDS011;3126;52.738;8.316;2023-06-22T19:53:25;24.88;;;20.95;;
6185;SDS011;3126;52.738;8.316;2023-06-22T19:58:25;27.75;;;21.90;;
6185;SDS011;3126;52.738;8.316;2023-06-22T20:03:30;28.75;;;23.80;;
6185;SDS011;3126;52.738;8.316;2023-06-22T20:08:31;32.63;;;25.52;;
6185;SDS011;3126;52.738;8.316;2023-06-22T20:13:51;27.27;;;22.77;;
6185;SDS011;3126;52.738;8.316;2023-06-22T20:19:05;25.20;;;22.48;;
6185;SDS011;3126;52.738;8.316;2023-06-22T20:24:06;28.95;;;24.00;;
6185;SDS011;3126;52.738;8.316;2023-06-22T20:29:27;25.98;;;21.63;;
6185;SDS011;3126;52.738;8.316;2023-06-22T20:34:38;23.20;;;20.80;;
6185;SDS011;3126;52.738;8.316;2023-06-22T20:39:47;20.02;;;17.80;;
6185;SDS011;3126;52.738;8.316;2023-06-22T20:44:47;18.23;;;16.27;;
6185;SDS011;3126;52.738;8.316;2023-06-22T20:49:49;18.60;;;15.75;;
6185;SDS011;3126;52.738;8.316;2023-06-22T20:54:50;17.63;;;15.75;;
6185;SDS011;3126;52.738;8.316;2023-06-22T20:59:52;17.83;;;16.08;;
6185;SDS011;3126;52.738;8.316;2023-06-22T21:04:53;15.45;;;14.05;;
6185;SDS011;3126;52.738;8.316;2023-06-22T21:09:54;15.82;;;14.32;;
6185;SDS011;3126;52.738;8.316;2023-06-22T21:14:55;16.25;;;14.57;;
6185;SDS011;3126;52.738;8.316;2023-06-22T21:19:56;16.73;;;13.93;;
6185;SDS011;3126;52.738;8.316;2023-06-22T21:25:09;14.93;;;13.32;;
6185;SDS011;3126;52.738;8.316;2023-06-22T21:30:12;16.40;;;13.68;;
6185;SDS011;3126;52.738;8.316;2023-06-22T21:35:13;17.38;;;14.73;;
6185;SDS011;3126;52.738;8.316;2023-06-22T21:40:13;17.95;;;16.13;;
6185;SDS011;3126;52.738;8.316;2023-06-22T21:45:14;18.70;;;16.70;;
6185;SDS011;3126;52.738;8.316;2023-06-22T21:50:15;19.40;;;17.10;;
6185;SDS011;3126;52.738;8.316;2023-06-22T21:55:16;22.08;;;19.35;;
6185;SDS011;3126;52.738;8.316;2023-06-22T22:00:16;22.58;;;19.45;;
6185;SDS011;3126;52.738;8.316;2023-06-22T22:05:17;23.63;;;19.73;;
6185;SDS011;3126;52.738;8.316;2023-06-22T22:10:18;20.67;;;18.33;;
6185;SDS011;3126;52.738;8.316;2023-06-22T22:15:19;24.88;;;18.88;;
6185;SDS011;3126;52.738;8.316;2023-06-22T22:20:20;20.75;;;16.55;;
6185;SDS011;3126;52.738;8.316;2023-06-22T22:25:20;13.65;;;10.93;;
6185;SDS011;3126;52.738;8.316;2023-06-22T22:30:25;14.20;;;11.68;;
6185;SDS011;3126;52.738;8.316;2023-06-22T22:35:26;11.98;;;10.77;;
6185;SDS011;3126;52.738;8.316;2023-06-22T22:40:26;9.43;;;8.45;;
6185;SDS011;3126;52.738;8.316;2023-06-22T22:45:27;11.05;;;8.68;;
6185;SDS011;3126;52.738;8.316;2023-06-22T22:50:27;9.55;;;8.25;;
6185;SDS011;3126;52.738;8.316;2023-06-22T22:55:28;10.48;;;9.15;;
6185;SDS011;3126;52.738;8.316;2023-06-22T23:00:28;10.70;;;8.95;;
6185;SDS011;3126;52.738;8.316;2023-06-22T23:05:29;11.50;;;9.05;;
6185;SDS011;3126;52.738;8.316;2023-06-22T23:10:29;11.23;;;9.38;;
6185;SDS011;3126;52.738;8.316;2023-06-22T23:15:30;10.88;;;9.70;;
6185;SDS011;3126;52.738;8.316;2023-06-22T23:20:31;13.90;;;10.68;;
6185;SDS011;3126;52.738;8.316;2023-06-22T23:25:31;11.80;;;10.07;;
6185;SDS011;3126;52.738;8.316;2023-06-22T23:30:34;12.00;;;9.07;;
6185;SDS011;3126;52.738;8.316;2023-06-22T23:35:36;10.60;;;9.50;;
6185;SDS011;3126;52.738;8.316;2023-06-22T23:40:37;9.48;;;8.38;;
6185;SDS011;3126;52.738;8.316;2023-06-22T23:45:39;7.80;;;7.00;;
6185;SDS011;3126;52.738;8.316;2023-06-22T23:50:40;9.55;;;6.30;;
6185;SDS011;3126;52.738;8.316;2023-06-22T23:55:40;7.13;;;6.25;;
